Time;durP1;ratioP1;P1;durP2;ratioP2;P2;SDS_P1;SDS_P2;PMS_P1;PMS_P2;Temp;Humidity;BMP_temperature;BMP_pressure;BME280_temperature;BME280_humidity;BME280_pressure;Samples;Min_cycle;Max_cycle;Signal;HPM_P1;HPM_P2
2021/11/30 00:00:38;;;;;;;4.22;2.67;;;;;;;;;;5006599;28;20026;-58
2021/11/30 00:03:04;;;;;;;5.22;2.35;;;;;;;;;;5006401;28;20029;-58
2021/11/30 00:05:29;;;;;;;4.38;2.33;;;;;;;;;;5005993;28;20476;-58
2021/11/30 00:07:56;;;;;;;5.65;2.60;;;;;;;;;;5005935;28;20164;-57
2021/11/30 00:13:06;;;;;;;4.88;2.42;;;;;;;;;;4998263;28;20057;-59
2021/11/30 00:15:31;;;;;;;4.00;2.50;;;;;;;;;;5002294;28;20508;-58
2021/11/30 00:17:57;;;;;;;4.05;2.60;;;;;;;;;;5000867;28;20049;-56
2021/11/30 00:20:22;;;;;;;6.93;3.20;;;;;;;;;;5001497;28;20380;-58
2021/11/30 00:22:47;;;;;;;4.53;3.00;;;;;;;;;;5002996;28;20034;-57
2021/11/30 00:25:13;;;;;;;4.25;2.42;;;;;;;;;;5004651;28;20029;-59
2021/11/30 00:27:38;;;;;;;5.38;2.67;;;;;;;;;;5004437;28;20030;-58
2021/11/30 00:30:04;;;;;;;20.05;6.05;;;;;;;;;;5001846;28;20034;-57
2021/11/30 00:32:30;;;;;;;6.20;3.17;;;;;;;;;;5005204;28;20385;-58
2021/11/30 00:34:55;;;;;;;3.15;2.33;;;;;;;;;;5005638;28;20859;-58
2021/11/30 00:37:21;;;;;;;4.32;2.40;;;;;;;;;;5001996;28;20057;-58
2021/11/30 00:39:46;;;;;;;5.03;2.88;;;;;;;;;;5002020;28;20314;-58
2021/11/30 00:42:11;;;;;;;4.38;2.60;;;;;;;;;;5002556;28;20456;-58
2021/11/30 00:44:38;;;;;;;4.43;2.92;;;;;;;;;;5003344;28;20484;-58
2021/11/30 00:47:04;;;;;;;4.80;2.90;;;;;;;;;;5002370;28;20034;-58
2021/11/30 00:49:30;;;;;;;4.07;2.72;;;;;;;;;;5001752;28;20042;-58
2021/11/30 00:51:57;;;;;;;3.92;2.65;;;;;;;;;;5001378;28;20034;-58
2021/11/30 00:54:24;;;;;;;7.43;3.22;;;;;;;;;;5002842;28;20030;-59
2021/11/30 00:56:51;;;;;;;6.57;3.42;;;;;;;;;;4999606;28;20034;-57
2021/11/30 00:59:17;;;;;;;6.65;3.20;;;;;;;;;;5001385;28;20033;-57
2021/11/30 01:01:44;;;;;;;6.07;3.25;;;;;;;;;;5000582;28;20062;-58
2021/11/30 01:04:10;;;;;;;5.90;3.08;;;;;;;;;;5001611;28;20033;-59
2021/11/30 01:06:37;;;;;;;4.85;3.05;;;;;;;;;;5002429;28;20022;-58
2021/11/30 01:09:05;;;;;;;8.20;3.70;;;;;;;;;;5002899;28;20038;-57
2021/11/30 01:11:31;;;;;;;4.80;3.20;;;;;;;;;;5003131;28;20365;-57
2021/11/30 01:13:57;;;;;;;6.80;3.17;;;;;;;;;;5002130;28;20033;-58
2021/11/30 01:16:22;;;;;;;5.20;3.30;;;;;;;;;;5008883;28;20104;-58
2021/11/30 01:18:48;;;;;;;5.88;3.53;;;;;;;;;;5000601;28;20053;-55
2021/11/30 01:21:13;;;;;;;5.05;3.22;;;;;;;;;;5002718;28;20038;-58
2021/11/30 01:23:39;;;;;;;5.22;3.45;;;;;;;;;;5003197;28;20029;-58
2021/11/30 01:26:04;;;;;;;5.78;3.53;;;;;;;;;;5004120;28;20091;-58
2021/11/30 01:28:30;;;;;;;6.35;3.83;;;;;;;;;;5003307;28;20076;-58
2021/11/30 01:30:56;;;;;;;6.05;3.53;;;;;;;;;;4999610;28;20080;-59
2021/11/30 01:33:21;;;;;;;6.70;3.75;;;;;;;;;;5004110;28;20029;-57
2021/11/30 01:35:47;;;;;;;5.35;3.33;;;;;;;;;;4999684;28;20112;-58
2021/11/30 01:38:14;;;;;;;6.57;3.55;;;;;;;;;;5003538;28;20029;-54
2021/11/30 01:40:40;;;;;;;5.63;3.33;;;;;;;;;;5000386;28;20025;-57
2021/11/30 01:43:08;;;;;;;6.25;3.50;;;;;;;;;;5003684;28;20057;-57
2021/11/30 01:50:35;;;;;;;5.70;3.40;;;;;;;;;;5001600;28;20026;-58
2021/11/30 01:53:00;;;;;;;5.85;3.33;;;;;;;;;;5001348;28;20441;-57
2021/11/30 01:55:27;;;;;;;8.95;3.83;;;;;;;;;;5002553;28;20108;-57
2021/11/30 01:57:54;;;;;;;5.95;3.40;;;;;;;;;;5003818;28;20032;-57
2021/11/30 02:00:22;;;;;;;5.75;3.47;;;;;;;;;;5002060;28;20022;-59
2021/11/30 02:02:47;;;;;;;6.95;3.65;;;;;;;;;;5000550;28;20030;-58
2021/11/30 02:05:13;;;;;;;9.05;3.88;;;;;;;;;;5004614;28;20365;-58
2021/11/30 02:07:40;;;;;;;5.65;3.88;;;;;;;;;;4999195;28;20034;-57
2021/11/30 02:10:08;;;;;;;10.27;4.18;;;;;;;;;;5001760;28;20046;-57
2021/11/30 02:12:36;;;;;;;5.70;3.70;;;;;;;;;;5000408;28;20038;-55
2021/11/30 02:15:04;;;;;;;7.03;3.75;;;;;;;;;;5000209;28;20101;-57
2021/11/30 02:17:30;;;;;;;6.25;3.85;;;;;;;;;;5003469;28;20068;-57
2021/11/30 02:19:58;;;;;;;8.80;4.32;;;;;;;;;;5001861;28;20089;-57
2021/11/30 02:22:24;;;;;;;5.22;3.45;;;;;;;;;;5001151;28;20452;-57
2021/11/30 02:24:50;;;;;;;7.20;3.67;;;;;;;;;;5003463;28;20095;-56
2021/11/30 02:27:16;;;;;;;6.07;4.05;;;;;;;;;;4999856;28;20030;-57
2021/11/30 02:29:41;;;;;;;7.35;4.00;;;;;;;;;;5001302;28;20037;-58
2021/11/30 02:32:08;;;;;;;6.90;4.50;;;;;;;;;;4997705;28;20475;-57
2021/11/30 02:34:33;;;;;;;5.97;4.10;;;;;;;;;;5003650;28;20046;-57
2021/11/30 02:37:11;;;;;;;12.90;4.50;;;;;;;;;;5001893;28;20037;-57
2021/11/30 02:39:37;;;;;;;7.15;4.30;;;;;;;;;;5000669;28;20062;-57
2021/11/30 02:42:05;;;;;;;8.40;4.18;;;;;;;;;;5003658;28;20045;-57
2021/11/30 02:44:31;;;;;;;7.13;4.20;;;;;;;;;;5004449;28;20408;-56
2021/11/30 02:47:00;;;;;;;8.45;3.75;;;;;;;;;;5000492;28;20118;-57
2021/11/30 02:49:29;;;;;;;6.70;3.97;;;;;;;;;;5001171;28;20041;-56
2021/11/30 02:52:03;;;;;;;7.13;4.15;;;;;;;;;;5003344;28;20365;-58
2021/11/30 02:54:29;;;;;;;5.85;4.07;;;;;;;;;;5003725;28;20119;-57
2021/11/30 02:56:57;;;;;;;6.32;3.60;;;;;;;;;;5000619;28;20535;-58
2021/11/30 02:59:25;;;;;;;5.60;3.60;;;;;;;;;;4999831;28;20029;-56
2021/11/30 03:01:56;;;;;;;6.38;4.25;;;;;;;;;;4997402;28;20135;-58
2021/11/30 03:04:21;;;;;;;11.13;3.97;;;;;;;;;;5003873;28;20107;-58
2021/11/30 03:06:47;;;;;;;5.95;3.60;;;;;;;;;;5003427;28;20532;-58
2021/11/30 03:09:13;;;;;;;5.80;3.72;;;;;;;;;;5002155;28;20298;-57
2021/11/30 03:11:39;;;;;;;9.75;4.18;;;;;;;;;;5002140;28;20085;-58
2021/11/30 03:14:04;;;;;;;6.28;3.30;;;;;;;;;;4997631;28;20045;-58
2021/11/30 03:16:30;;;;;;;8.32;3.88;;;;;;;;;;5000829;28;20038;-58
2021/11/30 03:18:56;;;;;;;5.22;3.17;;;;;;;;;;5001948;28;20489;-57
2021/11/30 03:21:21;;;;;;;9.27;3.70;;;;;;;;;;4999895;28;20030;-57
2021/11/30 03:23:47;;;;;;;7.38;3.55;;;;;;;;;;5005420;28;20197;-57
2021/11/30 03:26:13;;;;;;;5.00;3.50;;;;;;;;;;5007342;28;20045;-57
2021/11/30 03:28:41;;;;;;;7.47;4.03;;;;;;;;;;4999484;28;20041;-58
2021/11/30 03:31:07;;;;;;;5.95;3.40;;;;;;;;;;5002684;28;20028;-57
2021/11/30 03:36:17;;;;;;;8.77;3.88;;;;;;;;;;5008197;28;21469;-58
2021/11/30 03:38:43;;;;;;;10.75;3.63;;;;;;;;;;5002427;28;20018;-58
2021/11/30 03:41:09;;;;;;;7.03;3.33;;;;;;;;;;5006301;28;20080;-58
2021/11/30 03:43:35;;;;;;;6.55;3.15;;;;;;;;;;5005266;28;20022;-58
2021/11/30 03:46:01;;;;;;;5.63;3.78;;;;;;;;;;5003896;28;20037;-58
2021/11/30 03:48:27;;;;;;;5.15;3.30;;;;;;;;;;5001335;28;20023;-58
2021/11/30 03:50:52;;;;;;;6.50;2.85;;;;;;;;;;5000584;28;20034;-58
2021/11/30 03:53:18;;;;;;;5.55;2.97;;;;;;;;;;5007673;28;20068;-58
2021/11/30 03:55:43;;;;;;;8.10;3.20;;;;;;;;;;5003536;28;20076;-57
2021/11/30 03:58:09;;;;;;;7.53;3.40;;;;;;;;;;5000918;28;20056;-57
2021/11/30 04:00:34;;;;;;;7.05;3.10;;;;;;;;;;5004811;28;20075;-57
2021/11/30 04:03:00;;;;;;;6.57;2.63;;;;;;;;;;5004929;28;20092;-58
2021/11/30 04:05:26;;;;;;;4.75;2.83;;;;;;;;;;4998988;28;20026;-58
2021/11/30 04:07:51;;;;;;;6.45;2.72;;;;;;;;;;5005948;28;20104;-57
2021/11/30 04:10:17;;;;;;;9.48;3.15;;;;;;;;;;4999156;28;20390;-57
2021/11/30 04:12:42;;;;;;;7.13;2.70;;;;;;;;;;5002543;28;20487;-58
2021/11/30 04:15:08;;;;;;;5.43;2.65;;;;;;;;;;5004802;28;20458;-58
2021/11/30 04:17:33;;;;;;;5.60;2.50;;;;;;;;;;5006213;28;20080;-57
2021/11/30 04:19:59;;;;;;;3.78;2.63;;;;;;;;;;5002400;28;20120;-57
2021/11/30 04:22:24;;;;;;;4.63;3.13;;;;;;;;;;5004612;28;20502;-58
2021/11/30 04:24:50;;;;;;;6.32;2.55;;;;;;;;;;5004535;28;20092;-56
2021/11/30 04:27:16;;;;;;;6.70;2.70;;;;;;;;;;5001780;28;20026;-57
2021/11/30 04:29:43;;;;;;;4.60;2.70;;;;;;;;;;5001662;28;20437;-58
2021/11/30 04:32:09;;;;;;;4.63;2.05;;;;;;;;;;5001507;28;20030;-58
2021/11/30 04:34:34;;;;;;;4.50;2.50;;;;;;;;;;5004383;28;20100;-58
2021/11/30 04:37:00;;;;;;;3.45;2.10;;;;;;;;;;5004135;28;20038;-58
2021/11/30 04:39:25;;;;;;;6.18;2.25;;;;;;;;;;4999604;28;20025;-59
2021/11/30 04:41:51;;;;;;;7.70;2.60;;;;;;;;;;5005669;28;20512;-58
2021/11/30 04:44:19;;;;;;;6.68;2.22;;;;;;;;;;5004149;28;20346;-58
2021/11/30 04:46:51;;;;;;;2.88;2.20;;;;;;;;;;5002582;28;20026;-57
2021/11/30 04:49:35;;;;;;;8.15;2.35;;;;;;;;;;5002423;28;20074;-57
2021/11/30 04:52:03;;;;;;;4.85;1.98;;;;;;;;;;5002564;28;20401;-57
2021/11/30 04:54:29;;;;;;;4.72;2.05;;;;;;;;;;4999050;28;20064;-57
2021/11/30 04:56:54;;;;;;;6.53;2.10;;;;;;;;;;5003616;28;20120;-57
2021/11/30 04:59:21;;;;;;;7.05;2.08;;;;;;;;;;5000643;28;20491;-56
2021/11/30 05:01:47;;;;;;;6.38;2.17;;;;;;;;;;4999625;28;20052;-58
2021/11/30 05:04:14;;;;;;;4.45;2.00;;;;;;;;;;5001754;28;20100;-58
2021/11/30 05:06:41;;;;;;;3.65;2.40;;;;;;;;;;4999940;28;20037;-58
2021/11/30 05:09:07;;;;;;;4.00;2.00;;;;;;;;;;5005823;28;20026;-58
2021/11/30 05:11:33;;;;;;;4.45;2.20;;;;;;;;;;5003400;28;20030;-58
2021/11/30 05:13:58;;;;;;;5.30;2.30;;;;;;;;;;5005037;28;20021;-57
2021/11/30 05:16:24;;;;;;;4.35;2.40;;;;;;;;;;5000711;28;20359;-58
2021/11/30 05:18:50;;;;;;;7.25;2.47;;;;;;;;;;5001196;28;20044;-57
2021/11/30 05:21:15;;;;;;;3.95;1.98;;;;;;;;;;5004062;28;20438;-58
2021/11/30 05:23:41;;;;;;;3.78;2.33;;;;;;;;;;5002916;28;20270;-57
2021/11/30 05:26:08;;;;;;;3.40;2.13;;;;;;;;;;5003138;28;20030;-59
2021/11/30 05:28:39;;;;;;;3.67;2.20;;;;;;;;;;5001452;28;20152;-59
2021/11/30 05:31:05;;;;;;;4.05;2.20;;;;;;;;;;5003317;28;20029;-57
2021/11/30 05:33:32;;;;;;;3.58;2.10;;;;;;;;;;5003794;28;20036;-59
2021/11/30 05:35:58;;;;;;;5.93;2.50;;;;;;;;;;5000955;28;20030;-57
2021/11/30 05:38:24;;;;;;;4.50;2.03;;;;;;;;;;5002617;28;20037;-59
2021/11/30 05:40:50;;;;;;;3.88;2.53;;;;;;;;;;4999635;28;20504;-58
2021/11/30 05:43:15;;;;;;;7.22;3.17;;;;;;;;;;5002679;28;20393;-59
2021/11/30 05:45:41;;;;;;;3.67;2.40;;;;;;;;;;5003481;28;20496;-59
2021/11/30 05:48:07;;;;;;;7.35;2.63;;;;;;;;;;5000871;28;20053;-58
2021/11/30 05:50:32;;;;;;;4.78;2.47;;;;;;;;;;5003548;28;20150;-57
2021/11/30 05:52:59;;;;;;;4.00;2.47;;;;;;;;;;5002753;28;20029;-58
2021/11/30 05:55:24;;;;;;;5.28;2.47;;;;;;;;;;5005929;28;20382;-57
2021/11/30 05:57:50;;;;;;;3.13;2.28;;;;;;;;;;5002286;28;20041;-56
2021/11/30 06:00:17;;;;;;;6.18;2.53;;;;;;;;;;4998576;28;20018;-57
2021/11/30 06:05:17;;;;;;;6.03;2.70;;;;;;;;;;4998657;28;20028;-58
2021/11/30 06:07:43;;;;;;;3.85;2.60;;;;;;;;;;4998761;28;20432;-57
2021/11/30 06:10:08;;;;;;;4.97;2.88;;;;;;;;;;5000217;28;20022;-59
2021/11/30 06:12:34;;;;;;;4.22;2.50;;;;;;;;;;5003592;28;20603;-59
2021/11/30 06:14:59;;;;;;;3.90;2.55;;;;;;;;;;5002861;28;20062;-59
2021/11/30 06:17:26;;;;;;;6.47;3.08;;;;;;;;;;5010090;28;20060;-57
2021/11/30 06:19:51;;;;;;;6.90;2.92;;;;;;;;;;5003578;28;20030;-58
2021/11/30 06:22:17;;;;;;;5.57;3.28;;;;;;;;;;5000654;28;20018;-58
2021/11/30 06:24:42;;;;;;;6.70;2.78;;;;;;;;;;4998809;28;20076;-59
2021/11/30 06:27:07;;;;;;;6.47;2.85;;;;;;;;;;4995965;28;20471;-59
2021/11/30 06:29:33;;;;;;;4.78;2.75;;;;;;;;;;5001179;28;20040;-58
2021/11/30 06:31:58;;;;;;;5.82;2.90;;;;;;;;;;5002035;28;20026;-59
2021/11/30 06:34:24;;;;;;;4.03;2.42;;;;;;;;;;5003648;28;20030;-60
2021/11/30 06:36:49;;;;;;;4.72;2.40;;;;;;;;;;5001570;28;20038;-59
2021/11/30 06:39:14;;;;;;;4.35;2.38;;;;;;;;;;4998268;28;20448;-59
2021/11/30 06:41:40;;;;;;;8.02;2.85;;;;;;;;;;4999513;28;20100;-59
2021/11/30 06:44:06;;;;;;;5.90;2.88;;;;;;;;;;5002994;28;20748;-59
2021/11/30 06:46:32;;;;;;;4.72;2.88;;;;;;;;;;5002999;28;20145;-59
2021/11/30 06:48:57;;;;;;;5.75;2.50;;;;;;;;;;4995618;28;20021;-58
2021/11/30 06:51:23;;;;;;;3.92;2.33;;;;;;;;;;4998654;28;20455;-59
2021/11/30 06:53:48;;;;;;;5.72;3.13;;;;;;;;;;5003420;28;20072;-59
2021/11/30 06:56:13;;;;;;;4.93;2.95;;;;;;;;;;5000870;28;20049;-59
2021/11/30 06:58:39;;;;;;;6.18;2.80;;;;;;;;;;5002056;28;20477;-58
2021/11/30 07:01:06;;;;;;;10.13;4.68;;;;;;;;;;4999562;28;20110;-55
2021/11/30 07:03:32;;;;;;;5.95;3.22;;;;;;;;;;5000685;28;20041;-56
2021/11/30 07:06:02;;;;;;;4.65;2.50;;;;;;;;;;5007918;28;20025;-59
2021/11/30 07:14:04;;;;;;;4.55;2.53;;;;;;;;;;4999662;28;20026;-60
2021/11/30 07:16:30;;;;;;;4.97;2.92;;;;;;;;;;5002657;28;20084;-59
2021/11/30 07:18:55;;;;;;;6.70;2.95;;;;;;;;;;5004987;28;22759;-60
2021/11/30 07:21:21;;;;;;;8.05;2.65;;;;;;;;;;5004427;28;20065;-60
2021/11/30 07:23:47;;;;;;;6.32;3.47;;;;;;;;;;5004860;28;20069;-60
2021/11/30 07:26:13;;;;;;;5.07;3.17;;;;;;;;;;5001829;28;20026;-59
2021/11/30 07:28:38;;;;;;;4.55;3.13;;;;;;;;;;5004830;28;20040;-60
2021/11/30 07:31:10;;;;;;;6.15;2.13;;;;;;;;;;5004806;28;20731;-60
2021/11/30 07:33:38;;;;;;;9.52;4.68;;;;;;;;;;5001459;28;20273;-59
2021/11/30 07:36:05;;;;;;;4.40;2.88;;;;;;;;;;5002613;28;20029;-60
2021/11/30 07:38:33;;;;;;;5.65;2.97;;;;;;;;;;5003781;28;20055;-60
2021/11/30 07:40:58;;;;;;;2.25;1.83;;;;;;;;;;5001473;28;20026;-59
2021/11/30 07:43:24;;;;;;;2.72;1.88;;;;;;;;;;5004793;28;20056;-60
2021/11/30 07:45:50;;;;;;;2.97;1.88;;;;;;;;;;5001860;28;20112;-60
2021/11/30 07:48:20;;;;;;;2.72;2.10;;;;;;;;;;5002033;28;20514;-59
2021/11/30 07:50:46;;;;;;;4.05;1.65;;;;;;;;;;4996587;28;20038;-60
2021/11/30 07:53:12;;;;;;;1.70;1.45;;;;;;;;;;5001900;28;20025;-59
2021/11/30 07:55:37;;;;;;;5.35;2.28;;;;;;;;;;5007024;28;20076;-59
2021/11/30 07:58:03;;;;;;;4.75;1.95;;;;;;;;;;5004649;28;20026;-59
2021/11/30 08:00:29;;;;;;;3.20;1.90;;;;;;;;;;5004242;28;20022;-59
2021/11/30 08:02:54;;;;;;;3.15;1.80;;;;;;;;;;5005028;28;20033;-59
2021/11/30 08:05:20;;;;;;;2.97;1.40;;;;;;;;;;5007168;28;20525;-59
2021/11/30 08:07:46;;;;;;;3.28;1.75;;;;;;;;;;5004301;28;20083;-59
2021/11/30 08:10:16;;;;;;;2.63;1.33;;;;;;;;;;5009486;28;20032;-59
2021/11/30 08:12:42;;;;;;;2.95;1.50;;;;;;;;;;5001577;28;20057;-59
2021/11/30 08:15:10;;;;;;;3.70;1.67;;;;;;;;;;5003520;28;20514;-58
2021/11/30 08:17:35;;;;;;;2.20;1.58;;;;;;;;;;5001372;28;20034;-58
2021/11/30 08:20:01;;;;;;;2.85;1.80;;;;;;;;;;5004241;28;20103;-58
2021/11/30 08:22:27;;;;;;;1.77;1.40;;;;;;;;;;4994794;28;20252;-57
2021/11/30 08:24:52;;;;;;;2.22;1.60;;;;;;;;;;5005232;28;20021;-59
2021/11/30 08:27:19;;;;;;;3.35;1.50;;;;;;;;;;5002352;28;20022;-60
2021/11/30 08:29:47;;;;;;;1.98;1.60;;;;;;;;;;4999986;28;20030;-60
2021/11/30 08:32:13;;;;;;;1.95;1.52;;;;;;;;;;5005660;28;20487;-58
2021/11/30 08:34:41;;;;;;;4.20;1.60;;;;;;;;;;5005922;28;20025;-59
2021/11/30 08:37:08;;;;;;;3.05;1.50;;;;;;;;;;5001647;28;20037;-59
2021/11/30 08:39:34;;;;;;;4.10;1.90;;;;;;;;;;5002169;28;20116;-59
2021/11/30 08:42:02;;;;;;;5.47;1.67;;;;;;;;;;5005284;28;20104;-58
2021/11/30 08:44:28;;;;;;;3.60;1.50;;;;;;;;;;5004491;28;20021;-59
2021/11/30 08:46:55;;;;;;;3.17;1.67;;;;;;;;;;5000725;28;20454;-60
2021/11/30 08:49:22;;;;;;;2.42;1.90;;;;;;;;;;5003591;28;20465;-60
2021/11/30 08:51:47;;;;;;;2.00;1.70;;;;;;;;;;5005940;28;20400;-58
2021/11/30 08:54:13;;;;;;;5.70;1.83;;;;;;;;;;5002904;28;20022;-59
2021/11/30 08:56:39;;;;;;;4.80;3.53;;;;;;;;;;5004339;28;20504;-58
2021/11/30 08:59:04;;;;;;;4.03;1.75;;;;;;;;;;4995290;28;20045;-59
2021/11/30 09:01:30;;;;;;;3.38;1.95;;;;;;;;;;5004472;28;20033;-58
2021/11/30 09:03:55;;;;;;;2.60;1.60;;;;;;;;;;5002395;28;20029;-60
2021/11/30 09:06:21;;;;;;;3.65;2.00;;;;;;;;;;5004701;28;20499;-60
2021/11/30 09:08:46;;;;;;;3.63;1.60;;;;;;;;;;5002805;28;20030;-59
2021/11/30 09:11:12;;;;;;;3.38;1.80;;;;;;;;;;5003694;28;20446;-58
2021/11/30 09:13:37;;;;;;;2.17;1.30;;;;;;;;;;5002247;28;20449;-58
2021/11/30 09:16:03;;;;;;;3.47;2.00;;;;;;;;;;5004348;28;20017;-58
2021/11/30 09:18:30;;;;;;;11.98;2.50;;;;;;;;;;4998258;28;20112;-59
2021/11/30 09:20:57;;;;;;;3.35;1.85;;;;;;;;;;4995906;28;21040;-59
2021/11/30 09:23:23;;;;;;;2.45;1.77;;;;;;;;;;5000999;28;20033;-58
2021/11/30 09:25:49;;;;;;;2.15;1.67;;;;;;;;;;5000992;28;20042;-59
2021/11/30 09:28:14;;;;;;;5.20;1.80;;;;;;;;;;5000737;28;20108;-60
2021/11/30 09:30:41;;;;;;;2.85;1.70;;;;;;;;;;5005695;28;20124;-60
2021/11/30 09:33:07;;;;;;;2.55;1.90;;;;;;;;;;5000498;28;20022;-60
2021/11/30 09:35:33;;;;;;;2.92;1.90;;;;;;;;;;5003603;28;20041;-61
2021/11/30 09:37:58;;;;;;;2.47;1.60;;;;;;;;;;4998589;28;20033;-61
2021/11/30 09:40:28;;;;;;;2.70;2.03;;;;;;;;;;5000874;28;20480;-61
2021/11/30 09:42:54;;;;;;;4.40;1.90;;;;;;;;;;5002248;28;20113;-61
2021/11/30 09:45:22;;;;;;;4.75;2.15;;;;;;;;;;4998891;28;20204;-61
2021/11/30 09:47:47;;;;;;;4.63;2.40;;;;;;;;;;4999152;28;20101;-61
2021/11/30 09:50:18;;;;;;;4.25;2.60;;;;;;;;;;5004257;28;20109;-62
2021/11/30 09:52:44;;;;;;;3.63;2.00;;;;;;;;;;5003019;28;20100;-62
2021/11/30 09:55:16;;;;;;;3.20;2.35;;;;;;;;;;5000412;28;20504;-62
2021/11/30 09:57:42;;;;;;;2.67;1.83;;;;;;;;;;4996998;28;20472;-63
2021/11/30 10:00:11;;;;;;;3.33;2.08;;;;;;;;;;4997706;28;20034;-61
2021/11/30 10:02:37;;;;;;;2.60;1.83;;;;;;;;;;5005776;28;20030;-60
2021/11/30 10:05:03;;;;;;;2.30;1.92;;;;;;;;;;5002259;28;20030;-62
2021/11/30 10:07:51;;;;;;;1.80;1.70;;;;;;;;;;4997013;28;20034;-61
2021/11/30 10:10:18;;;;;;;3.08;2.05;;;;;;;;;;4999603;28;20087;-60
2021/11/30 10:12:52;;;;;;;3.38;1.60;;;;;;;;;;4999864;28;20374;-61
2021/11/30 10:15:17;;;;;;;2.65;1.63;;;;;;;;;;4999413;28;20542;-61
2021/11/30 10:17:43;;;;;;;3.97;1.65;;;;;;;;;;4995905;28;20091;-61
2021/11/30 10:20:12;;;;;;;2.72;1.80;;;;;;;;;;4998543;28;20041;-62
2021/11/30 10:22:44;;;;;;;2.35;2.10;;;;;;;;;;4996016;28;20558;-61
2021/11/30 10:25:25;;;;;;;2.97;1.90;;;;;;;;;;4999525;28;20044;-61
2021/11/30 10:27:58;;;;;;;3.42;1.50;;;;;;;;;;5000050;28;21339;-61
2021/11/30 10:30:27;;;;;;;2.08;1.80;;;;;;;;;;5003691;28;20030;-60
2021/11/30 10:32:54;;;;;;;3.03;2.23;;;;;;;;;;5002982;28;20538;-60
2021/11/30 10:35:23;;;;;;;2.97;1.80;;;;;;;;;;5006066;28;20116;-60
2021/11/30 10:37:49;;;;;;;5.60;1.60;;;;;;;;;;5004099;28;20448;-61
2021/11/30 10:40:22;;;;;;;3.20;2.00;;;;;;;;;;5004202;28;20045;-61
2021/11/30 10:42:51;;;;;;;3.58;1.70;;;;;;;;;;5006914;28;20034;-61
2021/11/30 10:45:33;;;;;;;;;;;;;;;;;;5006469;28;20022;-60
2021/11/30 10:48:08;;;;;;;2.03;1.60;;;;;;;;;;5006444;28;20006;-61
2021/11/30 10:50:36;;;;;;;2.80;1.80;;;;;;;;;;5009387;28;20030;-61
2021/11/30 10:53:12;;;;;;;3.20;2.28;;;;;;;;;;5004003;28;20034;-59
2021/11/30 10:55:38;;;;;;;3.03;2.10;;;;;;;;;;5006147;28;20112;-59
2021/11/30 10:58:03;;;;;;;1.98;1.50;;;;;;;;;;5001990;28;20429;-58
2021/11/30 11:00:31;;;;;;;3.53;1.63;;;;;;;;;;5006355;28;20449;-59
2021/11/30 11:05:45;;;;;;;3.17;1.70;;;;;;;;;;5003419;28;20021;-58
2021/11/30 11:08:13;;;;;;;1.65;1.42;;;;;;;;;;5000939;28;20034;-57
2021/11/30 11:10:43;;;;;;;1.92;1.58;;;;;;;;;;5000118;28;20092;-58
2021/11/30 11:13:29;;;;;;;2.10;1.80;;;;;;;;;;5003594;28;20030;-58
2021/11/30 11:15:58;;;;;;;3.13;1.98;;;;;;;;;;5007449;28;20025;-59
2021/11/30 11:18:38;;;;;;;2.15;1.88;;;;;;;;;;4998355;28;20030;-59
2021/11/30 11:21:30;;;;;;;3.95;2.78;;;;;;;;;;5002205;28;20534;-59
2021/11/30 11:24:09;;;;;;;2.38;1.45;;;;;;;;;;5003537;28;20041;-59
2021/11/30 11:26:39;;;;;;;3.72;1.60;;;;;;;;;;5001033;28;20030;-59
2021/11/30 11:29:07;;;;;;;5.13;1.92;;;;;;;;;;4998422;28;20088;-60
2021/11/30 11:31:32;;;;;;;2.85;1.67;;;;;;;;;;5004843;28;20022;-60
2021/11/30 11:34:00;;;;;;;3.35;1.60;;;;;;;;;;5000021;28;20022;-59
2021/11/30 11:36:27;;;;;;;3.65;2.10;;;;;;;;;;5007665;28;20435;-60
2021/11/30 11:38:52;;;;;;;2.60;2.00;;;;;;;;;;4999558;28;20584;-60
2021/11/30 11:41:19;;;;;;;3.28;1.70;;;;;;;;;;5003850;28;20113;-60
2021/11/30 11:43:45;;;;;;;4.63;1.77;;;;;;;;;;5002697;28;20057;-60
2021/11/30 11:46:12;;;;;;;1.92;1.80;;;;;;;;;;4999728;28;20076;-60
2021/11/30 11:48:39;;;;;;;3.80;1.85;;;;;;;;;;5004461;28;20080;-60
2021/11/30 11:51:06;;;;;;;3.53;1.92;;;;;;;;;;4998539;28;20086;-59
2021/11/30 11:53:39;;;;;;;7.30;1.60;;;;;;;;;;5003713;28;20115;-60
2021/11/30 11:56:14;;;;;;;2.70;1.50;;;;;;;;;;5008184;28;20022;-58
2021/11/30 11:58:41;;;;;;;1.63;1.20;;;;;;;;;;5001277;28;20022;-59
2021/11/30 12:01:23;;;;;;;2.15;1.35;;;;;;;;;;5004596;28;20029;-60
2021/11/30 12:04:06;;;;;;;2.53;1.70;;;;;;;;;;5004312;28;20018;-60
2021/11/30 12:06:48;;;;;;;3.42;2.00;;;;;;;;;;5002788;28;20036;-60
2021/11/30 12:09:34;;;;;;;1.38;1.20;;;;;;;;;;5004864;28;20045;-61
2021/11/30 12:12:24;;;;;;;2.38;1.40;;;;;;;;;;5005953;28;20038;-60
2021/11/30 12:14:57;;;;;;;3.45;1.35;;;;;;;;;;5004620;28;20037;-58
2021/11/30 12:17:23;;;;;;;3.00;1.77;;;;;;;;;;5003383;28;20029;-60
2021/11/30 12:19:57;;;;;;;2.83;1.30;;;;;;;;;;5002949;28;20059;-60
2021/11/30 12:22:41;;;;;;;3.60;1.48;;;;;;;;;;5006087;28;20029;-60
2021/11/30 12:25:29;;;;;;;2.55;1.45;;;;;;;;;;5002235;28;20156;-59
2021/11/30 12:28:02;;;;;;;1.90;1.40;;;;;;;;;;5002941;28;20030;-60
2021/11/30 12:30:42;;;;;;;2.55;1.55;;;;;;;;;;5004088;28;20033;-60
2021/11/30 12:33:14;;;;;;;;;;;;;;;;;;5001894;28;20036;-60
2021/11/30 12:35:57;;;;;;;2.20;1.60;;;;;;;;;;5002535;28;19921;-60
2021/11/30 12:38:25;;;;;;;2.10;1.70;;;;;;;;;;4999280;28;20029;-59
2021/11/30 12:40:51;;;;;;;1.90;1.40;;;;;;;;;;5001402;28;20165;-60
2021/11/30 12:43:23;;;;;;;2.88;1.88;;;;;;;;;;4999317;28;20109;-60
2021/11/30 12:46:00;;;;;;;1.42;1.33;;;;;;;;;;5001328;28;20120;-60
2021/11/30 12:48:31;;;;;;;2.40;1.75;;;;;;;;;;5002246;28;20399;-60
2021/11/30 12:51:31;;;;;;;3.67;1.55;;;;;;;;;;4998945;28;20135;-60
2021/11/30 12:53:58;;;;;;;2.28;1.55;;;;;;;;;;4999614;28;20664;-60
2021/11/30 12:56:54;;;;;;;1.63;1.38;;;;;;;;;;5002826;28;20045;-59
2021/11/30 12:59:39;;;;;;;3.10;1.55;;;;;;;;;;4990186;28;20535;-59
2021/11/30 13:02:22;;;;;;;1.17;1.08;;;;;;;;;;4996429;28;20366;-59
2021/11/30 13:04:55;;;;;;;4.57;1.60;;;;;;;;;;4994055;28;20038;-61
2021/11/30 13:07:22;;;;;;;3.35;1.90;;;;;;;;;;5000650;28;20034;-61
2021/11/30 13:09:53;;;;;;;2.33;1.55;;;;;;;;;;5007112;28;20036;-61
2021/11/30 13:12:29;;;;;;;2.70;1.67;;;;;;;;;;4999335;28;20040;-61
2021/11/30 13:14:56;;;;;;;2.38;1.88;;;;;;;;;;5003554;28;20036;-60
2021/11/30 13:17:28;;;;;;;3.47;1.70;;;;;;;;;;4999341;28;20087;-59
2021/11/30 13:19:54;;;;;;;3.95;2.00;;;;;;;;;;4994691;28;20022;-60
2021/11/30 13:22:19;;;;;;;1.67;1.58;;;;;;;;;;4995470;28;20034;-59
2021/11/30 13:24:46;;;;;;;2.42;2.10;;;;;;;;;;4996373;28;20030;-60
2021/11/30 13:27:28;;;;;;;1.98;1.77;;;;;;;;;;5004984;28;20129;-61
2021/11/30 13:29:57;;;;;;;2.60;1.90;;;;;;;;;;4994186;28;20030;-60
2021/11/30 13:32:25;;;;;;;4.50;2.13;;;;;;;;;;4998621;28;20122;-59
2021/11/30 13:35:20;;;;;;;5.68;2.08;;;;;;;;;;5003586;28;20029;-59
2021/11/30 13:37:51;;;;;;;3.40;2.13;;;;;;;;;;5003717;28;20091;-59
2021/11/30 13:40:42;;;;;;;3.67;2.50;;;;;;;;;;4996459;28;20033;-59
2021/11/30 13:43:09;;;;;;;4.40;2.45;;;;;;;;;;4998236;28;20056;-59
2021/11/30 13:45:41;;;;;;;2.92;2.15;;;;;;;;;;4998758;28;20021;-60
2021/11/30 13:48:07;;;;;;;2.88;2.22;;;;;;;;;;4997610;28;20029;-59
2021/11/30 13:50:37;;;;;;;3.00;1.80;;;;;;;;;;4999176;28;20028;-59
2021/11/30 13:53:13;;;;;;;5.65;2.50;;;;;;;;;;4999526;28;20088;-59
2021/11/30 13:55:40;;;;;;;3.42;1.83;;;;;;;;;;4995869;28;20030;-60
2021/11/30 13:58:15;;;;;;;1.88;1.60;;;;;;;;;;5002428;28;20057;-60
2021/11/30 14:00:48;;;;;;;4.38;2.70;;;;;;;;;;5002083;28;20050;-60
2021/11/30 14:03:14;;;;;;;5.63;3.03;;;;;;;;;;4999730;28;20278;-60
2021/11/30 14:05:41;;;;;;;3.60;2.20;;;;;;;;;;5001479;28;20105;-59
2021/11/30 14:08:06;;;;;;;3.22;2.40;;;;;;;;;;5000215;28;20030;-60
2021/11/30 14:10:32;;;;;;;2.58;1.80;;;;;;;;;;4996456;28;20412;-60
2021/11/30 14:12:59;;;;;;;3.70;2.20;;;;;;;;;;5002618;28;20122;-59
2021/11/30 14:15:25;;;;;;;3.45;2.00;;;;;;;;;;5003517;28;20032;-60
2021/11/30 14:18:03;;;;;;;3.92;1.83;;;;;;;;;;4994764;28;20038;-60
2021/11/30 14:20:28;;;;;;;3.67;1.67;;;;;;;;;;4995351;28;20223;-60
2021/11/30 14:22:54;;;;;;;1.75;1.63;;;;;;;;;;4998779;28;20196;-61
2021/11/30 14:25:22;;;;;;;3.50;2.15;;;;;;;;;;5000361;28;20030;-61
2021/11/30 14:27:57;;;;;;;4.38;2.35;;;;;;;;;;4997964;28;20049;-61
2021/11/30 14:30:25;;;;;;;2.65;1.90;;;;;;;;;;4998328;28;20026;-59
2021/11/30 14:33:07;;;;;;;2.65;1.70;;;;;;;;;;4999763;28;20034;-60
2021/11/30 14:35:43;;;;;;;1.92;1.83;;;;;;;;;;4996827;28;20392;-60
2021/11/30 14:38:09;;;;;;;2.70;1.80;;;;;;;;;;4997124;28;20488;-60
2021/11/30 14:40:39;;;;;;;6.07;2.00;;;;;;;;;;4996762;28;20392;-61
2021/11/30 14:43:18;;;;;;;3.75;2.10;;;;;;;;;;4997584;28;20449;-62
2021/11/30 14:45:52;;;;;;;2.38;1.60;;;;;;;;;;4998740;28;20096;-59
2021/11/30 14:48:43;;;;;;;2.97;1.45;;;;;;;;;;4995785;28;20136;-59
2021/11/30 14:51:14;;;;;;;2.42;1.40;;;;;;;;;;4997187;28;20033;-59
2021/11/30 14:53:52;;;;;;;2.67;1.85;;;;;;;;;;4998211;28;20581;-59
2021/11/30 14:56:27;;;;;;;2.80;1.67;;;;;;;;;;4997612;28;20543;-62
2021/11/30 14:58:53;;;;;;;2.33;1.48;;;;;;;;;;4997748;28;20038;-60
2021/11/30 15:01:22;;;;;;;3.35;1.90;;;;;;;;;;5004493;28;20139;-61
2021/11/30 15:03:48;;;;;;;5.68;1.52;;;;;;;;;;4998689;28;20615;-61
2021/11/30 15:06:23;;;;;;;2.20;1.52;;;;;;;;;;4995869;28;20309;-61
2021/11/30 15:08:52;;;;;;;5.70;1.98;;;;;;;;;;5000797;28;20049;-60
2021/11/30 15:11:29;;;;;;;2.17;1.50;;;;;;;;;;4996128;28;20146;-60